Etusivu
METAR-TAF:

METAR-TAF

Lentoasemat :

Tillamook, Oregon, Yhdysvallat

Leveyspiiri: 45-25-06N, Pituuspiiri: 123-48-52W, korkeus merenpinnasta: 11 m

Tämänhetkinen sää

Tämä raportti tehtiin 33 minuuttia sitten, kello 17.55 UTC
Tuuli 3 kn lännestä
Lämpötila 10°C
Kosteus 93%
Ilmanpaine 1021 hPa
Näkyvyys: 11.3 km
Pilvistä 1700 ft:n korkeudessa
heikkoa tihkusadetta

METAR: KTMK 121755Z AUTO 26003KT 7SM -DZ OVC017 10/09 A3016 RMK AO2

Aika: 10:28 (18:28 UTC)


TAF: puuttuu

Säähavainnot ja -ennusteet yli 4000 lentoasemalta (METAR- ja TAF-raportit).

Käytössä olevat sääasemat on merkitty karttaan keltaisilla ja punaisilla pisteillä.

Aseta hiiri pisteen päälle nähdäksesi sääaseman nimen.

Klikkaa sitten nähdäksesi säähavainnot ja -ennusteet.

Kartan vaihtaminen: klikkaa mustalla rastilla varustettuja vihreitä pisteitä, niin voit zoomata sisään; viivalla varustettua vihreää pistettä, niin voit zoomata ulos tai vihreitä nuolia, niin pääset viereisille kartoille.


METAR-TAF: